createdAt,value
2017-09-08T00:01:38.026Z,97.20
2017-09-08T00:04:04.466Z,97.10
2017-09-08T00:06:30.835Z,97.10
2017-09-08T00:08:57.281Z,97.10
2017-09-08T00:11:23.649Z,97.10
2017-09-08T00:13:50.052Z,97.00
2017-09-08T00:16:17.165Z,97.10
2017-09-08T00:18:44.748Z,97.00
2017-09-08T00:21:11.842Z,97.10
2017-09-08T00:23:38.148Z,97.10
2017-09-08T00:26:04.558Z,97.10
2017-09-08T00:28:30.935Z,97.30
2017-09-08T00:30:57.339Z,97.10
2017-09-08T00:33:23.737Z,97.10
2017-09-08T00:35:50.143Z,97.10
2017-09-08T00:38:16.548Z,97.10
2017-09-08T00:40:42.966Z,97.10
2017-09-08T00:43:09.338Z,97.10
2017-09-08T00:45:35.995Z,97.20
2017-09-08T00:48:03.206Z,97.20
2017-09-08T00:50:29.680Z,97.10
2017-09-08T00:52:56.842Z,96.90
2017-09-08T00:55:23.966Z,96.90
2017-09-08T00:57:50.350Z,96.90
2017-09-08T01:00:16.752Z,96.90
2017-09-08T01:02:43.189Z,96.90
2017-09-08T01:05:09.573Z,97.00
2017-09-08T01:07:35.995Z,97.10
2017-09-08T01:10:02.423Z,97.20
2017-09-08T01:12:28.821Z,97.20
2017-09-08T01:14:55.188Z,97.10
2017-09-08T01:17:21.589Z,97.10
2017-09-08T01:19:48.011Z,97.10
2017-09-08T01:22:14.393Z,97.10
2017-09-08T01:24:40.762Z,97.00
2017-09-08T01:27:07.110Z,97.00
2017-09-08T01:29:33.476Z,97.00
2017-09-08T01:31:59.841Z,96.90
2017-09-08T01:34:27.244Z,97.30
2017-09-08T01:36:53.602Z,97.30
2017-09-08T01:39:20.031Z,97.30
2017-09-08T01:41:46.406Z,97.40
2017-09-08T01:44:12.772Z,97.40
2017-09-08T01:46:39.158Z,97.50
2017-09-08T01:49:05.579Z,97.50
2017-09-08T01:51:32.695Z,97.40
2017-09-08T01:53:59.046Z,97.30
2017-09-08T01:56:25.460Z,97.30
2017-09-08T01:58:51.849Z,97.20
2017-09-08T02:01:18.205Z,97.10
2017-09-08T02:03:44.610Z,97.20
2017-09-08T02:06:10.979Z,97.10
2017-09-08T02:08:37.379Z,97.10
2017-09-08T02:11:03.788Z,97.00
2017-09-08T02:13:30.117Z,96.90
2017-09-08T02:15:56.466Z,96.90
2017-09-08T02:18:23.153Z,97.00
2017-09-08T02:20:50.285Z,97.10
2017-09-08T02:23:17.109Z,97.50
2017-09-08T02:25:43.508Z,97.80
2017-09-08T02:28:09.864Z,97.40
2017-09-08T02:30:36.284Z,97.40
2017-09-08T02:33:02.623Z,97.30
2017-09-08T02:35:29.005Z,97.30
2017-09-08T02:37:55.368Z,97.40
2017-09-08T02:40:21.724Z,97.50
2017-09-08T02:42:48.088Z,97.70
2017-09-08T02:45:15.185Z,97.70
2017-09-08T02:47:41.594Z,97.70
2017-09-08T02:50:07.976Z,97.50
2017-09-08T02:52:34.345Z,97.50
2017-09-08T02:55:00.730Z,97.40
2017-09-08T02:57:27.110Z,97.30
2017-09-08T02:59:53.489Z,97.30
2017-09-08T03:02:19.864Z,97.40
2017-09-08T03:04:46.288Z,97.60
2017-09-08T03:07:12.652Z,97.60
2017-09-08T03:09:39.035Z,97.50
2017-09-08T03:12:06.485Z,97.40
2017-09-08T03:14:33.558Z,97.30
2017-09-08T03:16:59.951Z,97.30
2017-09-08T03:19:26.294Z,97.30
2017-09-08T03:21:52.673Z,97.40
2017-09-08T03:24:19.026Z,97.30
2017-09-08T03:26:45.440Z,97.30
2017-09-08T03:29:11.821Z,97.30
2017-09-08T03:31:38.168Z,97.30
2017-09-08T03:34:04.869Z,97.30
2017-09-08T03:36:31.239Z,97.20
2017-09-08T03:38:57.652Z,97.20
2017-09-08T03:41:24.801Z,97.10
2017-09-08T03:43:51.954Z,97.10
2017-09-08T03:46:18.311Z,97.10
2017-09-08T03:48:44.861Z,97.10
2017-09-08T03:51:11.220Z,97.10
2017-09-08T03:53:37.646Z,97.00
2017-09-08T03:56:04.012Z,97.00
2017-09-08T03:58:30.374Z,97.60
2017-09-08T04:00:57.144Z,98.70
2017-09-08T04:03:23.506Z,98.80
2017-09-08T04:05:49.862Z,98.10
2017-09-08T04:08:16.285Z,96.80
2017-09-08T04:10:42.663Z,96.20
2017-09-08T04:13:09.118Z,95.70
2017-09-08T04:15:36.241Z,94.80
2017-09-08T04:18:02.615Z,94.80
2017-09-08T04:20:28.975Z,94.90
2017-09-08T04:22:55.672Z,94.30
2017-09-08T04:25:22.100Z,94.00
2017-09-08T04:27:48.531Z,93.70
2017-09-08T04:30:14.924Z,93.60
2017-09-08T04:32:41.302Z,93.60
2017-09-08T04:35:07.660Z,96.20
2017-09-08T04:37:34.018Z,96.70
2017-09-08T04:40:01.202Z,97.10
2017-09-08T04:42:27.617Z,96.80
2017-09-08T04:44:54.734Z,95.30
2017-09-08T04:47:21.262Z,95.30
2017-09-08T04:49:47.967Z,94.00
2017-09-08T04:52:14.323Z,93.30
2017-09-08T04:54:40.725Z,93.20
2017-09-08T04:57:07.081Z,93.20
2017-09-08T04:59:33.478Z,93.30
2017-09-08T05:01:59.856Z,93.40
2017-09-08T05:04:26.211Z,93.40
2017-09-08T05:06:53.320Z,93.60
2017-09-08T05:09:20.027Z,93.60
2017-09-08T05:11:46.372Z,94.70
2017-09-08T05:14:12.816Z,95.10
2017-09-08T05:16:39.197Z,94.90
2017-09-08T05:19:06.275Z,95.40
2017-09-08T05:21:33.008Z,95.40
2017-09-08T05:23:59.364Z,94.50
2017-09-08T05:26:25.713Z,94.10
2017-09-08T05:28:52.134Z,93.80
2017-09-08T05:31:18.504Z,93.30
2017-09-08T05:33:44.868Z,93.50
2017-09-08T05:36:11.199Z,93.60
2017-09-08T05:38:37.586Z,93.80
2017-09-08T05:41:03.972Z,93.80
2017-09-08T05:43:30.360Z,94.00
2017-09-08T05:45:56.748Z,93.80
2017-09-08T05:48:23.589Z,94.10
2017-09-08T05:50:50.719Z,93.90
2017-09-08T05:53:17.078Z,94.20
2017-09-08T05:55:43.438Z,94.20
2017-09-08T05:58:09.808Z,94.30
2017-09-08T06:00:36.191Z,94.40
2017-09-08T06:03:03.265Z,94.40
2017-09-08T06:05:29.680Z,94.40
2017-09-08T06:07:56.058Z,94.50
2017-09-08T06:10:23.216Z,94.60
2017-09-08T06:12:49.661Z,94.70
2017-09-08T06:15:17.115Z,95.00
2017-09-08T06:17:44.252Z,95.10
2017-09-08T06:20:10.633Z,95.00
2017-09-08T06:22:37.010Z,95.10
2017-09-08T06:25:03.393Z,94.90
2017-09-08T06:27:29.795Z,95.00
2017-09-08T06:29:56.181Z,95.10
2017-09-08T06:32:22.557Z,94.90
2017-09-08T06:34:49.659Z,94.90
2017-09-08T06:37:16.335Z,94.90
2017-09-08T06:39:43.448Z,95.10
2017-09-08T06:42:09.793Z,95.00
2017-09-08T06:44:36.152Z,95.00
2017-09-08T06:47:02.641Z,96.00
2017-09-08T06:49:31.225Z,95.50
2017-09-08T06:51:57.575Z,95.10
2017-09-08T06:54:24.716Z,95.20
2017-09-08T06:56:51.067Z,95.00
2017-09-08T06:59:18.140Z,94.40
2017-09-08T07:01:44.530Z,94.40
2017-09-08T07:04:11.631Z,94.40
2017-09-08T07:06:37.997Z,94.40
2017-09-08T07:09:05.108Z,94.80
2017-09-08T07:11:31.488Z,94.40
2017-09-08T07:13:58.640Z,94.20
2017-09-08T07:16:24.981Z,94.10
2017-09-08T07:18:51.425Z,94.20
2017-09-08T07:21:18.142Z,94.30
2017-09-08T07:23:44.547Z,94.00
2017-09-08T07:26:10.926Z,93.60
2017-09-08T07:28:37.305Z,93.40
2017-09-08T07:31:03.666Z,93.30
2017-09-08T07:33:30.836Z,93.30
2017-09-08T07:35:57.229Z,93.30
2017-09-08T07:38:24.347Z,93.00
2017-09-08T07:40:50.725Z,92.90
2017-09-08T07:43:17.417Z,92.50
2017-09-08T07:45:43.795Z,92.70
2017-09-08T07:48:10.209Z,92.40
2017-09-08T07:50:36.556Z,92.10
2017-09-08T07:53:03.642Z,91.60
2017-09-08T07:55:30.041Z,91.70
2017-09-08T07:57:56.401Z,91.60
2017-09-08T08:00:23.064Z,91.60
2017-09-08T08:02:49.424Z,91.60
2017-09-08T08:05:15.788Z,91.50
2017-09-08T08:07:42.201Z,91.40
2017-09-08T08:10:08.547Z,91.00
2017-09-08T08:12:34.937Z,90.90
2017-09-08T08:15:01.312Z,91.00
2017-09-08T08:17:27.684Z,90.90
2017-09-08T08:19:54.119Z,90.20
2017-09-08T08:22:20.516Z,89.10
2017-09-08T08:24:46.850Z,89.10
2017-09-08T08:27:13.207Z,90.40
2017-09-08T08:29:39.609Z,90.70
2017-09-08T08:32:05.985Z,90.20
2017-09-08T08:34:32.360Z,90.20
2017-09-08T08:36:58.713Z,90.30
2017-09-08T08:39:25.073Z,88.40
2017-09-08T08:41:51.474Z,85.60
2017-09-08T08:44:17.847Z,83.20
2017-09-08T08:46:44.174Z,82.00
2017-09-08T08:49:10.710Z,80.70
2017-09-08T08:51:37.102Z,81.00
2017-09-08T08:54:04.190Z,78.80
2017-09-08T08:56:30.558Z,78.70
2017-09-08T08:58:56.924Z,78.70
2017-09-08T09:01:23.286Z,78.90
2017-09-08T09:03:49.663Z,79.40
2017-09-08T09:06:16.403Z,79.50
2017-09-08T09:08:42.778Z,79.50
2017-09-08T09:11:09.154Z,78.50
2017-09-08T09:13:35.520Z,78.10
2017-09-08T09:16:01.877Z,77.80
2017-09-08T09:18:28.262Z,74.90
2017-09-08T09:20:55.373Z,75.20
2017-09-08T09:23:22.137Z,75.20
2017-09-08T09:25:48.514Z,75.00
2017-09-08T09:28:14.897Z,74.80
2017-09-08T09:30:41.299Z,74.30
2017-09-08T09:33:07.653Z,72.80
2017-09-08T09:35:34.042Z,72.20
2017-09-08T09:38:00.436Z,72.50
2017-09-08T09:40:27.083Z,73.00
2017-09-08T09:42:53.483Z,72.80
2017-09-08T09:45:19.837Z,73.60
2017-09-08T09:47:46.308Z,73.50
2017-09-08T09:50:12.638Z,73.30
2017-09-08T09:52:39.055Z,71.90
2017-09-08T09:55:05.426Z,72.10
2017-09-08T09:57:32.067Z,70.20
2017-09-08T09:59:58.456Z,69.60
2017-09-08T10:02:24.842Z,69.40
2017-09-08T10:04:51.227Z,70.20
2017-09-08T10:07:17.625Z,70.70
2017-09-08T10:09:43.970Z,70.20
2017-09-08T10:12:10.339Z,69.40
2017-09-08T10:14:37.089Z,68.80
2017-09-08T10:17:03.454Z,66.20
2017-09-08T10:19:29.851Z,66.50
2017-09-08T10:21:56.998Z,64.80
2017-09-08T10:24:23.359Z,64.80
2017-09-08T10:26:49.735Z,62.30
2017-09-08T10:29:16.100Z,60.40
2017-09-08T10:31:42.817Z,61.40
2017-09-08T10:34:09.966Z,61.10
2017-09-08T10:36:36.350Z,61.00
2017-09-08T10:39:02.980Z,59.90
2017-09-08T10:41:29.412Z,60.00
2017-09-08T10:43:56.133Z,59.80
2017-09-08T10:46:22.551Z,59.20
2017-09-08T10:48:49.753Z,56.90
2017-09-08T10:51:16.117Z,56.80
2017-09-08T10:53:43.211Z,55.50
2017-09-08T10:56:09.615Z,55.50
2017-09-08T10:58:35.978Z,55.30
2017-09-08T11:01:02.762Z,54.20
2017-09-08T11:03:29.189Z,55.30
2017-09-08T11:05:55.558Z,54.50
2017-09-08T11:08:21.974Z,53.90
2017-09-08T11:10:48.404Z,53.20
2017-09-08T11:13:15.506Z,54.40
2017-09-08T11:15:41.883Z,53.70
2017-09-08T11:18:08.435Z,53.30
2017-09-08T11:20:34.783Z,53.10
2017-09-08T11:23:01.148Z,53.30
2017-09-08T11:25:27.531Z,53.00
2017-09-08T11:27:53.946Z,53.30
2017-09-08T11:30:20.457Z,53.40
2017-09-08T11:32:53.596Z,53.10
2017-09-08T11:35:26.163Z,53.10
2017-09-08T11:37:52.573Z,53.80
2017-09-08T11:40:19.056Z,53.70
2017-09-08T11:42:45.413Z,53.00
2017-09-08T11:45:12.529Z,51.90
2017-09-08T11:47:38.961Z,51.90
2017-09-08T11:50:12.315Z,51.20
2017-09-08T11:52:38.697Z,50.40
2017-09-08T11:55:05.052Z,49.30
2017-09-08T11:57:31.417Z,48.80
2017-09-08T11:59:57.821Z,47.70
2017-09-08T12:02:24.546Z,47.40
2017-09-08T12:04:51.662Z,46.00
2017-09-08T12:07:18.059Z,45.90
2017-09-08T12:09:44.412Z,46.00
2017-09-08T12:12:10.783Z,45.80
2017-09-08T12:14:37.937Z,45.10
2017-09-08T12:17:04.280Z,45.00
2017-09-08T12:19:30.958Z,45.70
2017-09-08T12:21:57.330Z,46.00
2017-09-08T12:24:23.787Z,46.40
2017-09-08T12:26:50.920Z,45.80
2017-09-08T12:29:17.289Z,45.70
2017-09-08T12:31:43.662Z,44.50
2017-09-08T12:34:10.803Z,44.00
2017-09-08T12:36:38.199Z,43.40
2017-09-08T12:39:04.602Z,43.80
2017-09-08T12:41:31.712Z,44.40
2017-09-08T12:43:58.071Z,44.30
2017-09-08T12:46:25.182Z,42.90
2017-09-08T12:48:52.063Z,42.90
2017-09-08T12:51:19.174Z,43.50
2017-09-08T12:53:45.520Z,43.40
2017-09-08T12:56:11.956Z,42.70
2017-09-08T12:58:38.304Z,42.70
2017-09-08T13:01:05.414Z,42.90
2017-09-08T13:03:31.763Z,42.90
2017-09-08T13:05:58.126Z,41.80
2017-09-08T13:08:24.449Z,41.90
2017-09-08T13:10:50.819Z,42.90
2017-09-08T13:13:17.177Z,43.20
2017-09-08T13:15:43.543Z,42.30
2017-09-08T13:18:10.200Z,41.60
2017-09-08T13:20:36.578Z,42.40
2017-09-08T13:23:03.673Z,42.50
2017-09-08T13:25:30.026Z,42.40
2017-09-08T13:27:56.395Z,42.20
2017-09-08T13:30:23.126Z,42.20
2017-09-08T13:32:49.502Z,43.10
2017-09-08T13:35:15.896Z,43.30
2017-09-08T13:37:42.302Z,42.40
2017-09-08T13:40:08.652Z,42.80
2017-09-08T13:42:35.764Z,44.00
2017-09-08T13:45:02.102Z,44.00
2017-09-08T13:47:28.556Z,43.50
2017-09-08T13:49:54.932Z,43.50
2017-09-08T13:52:21.631Z,43.40
2017-09-08T13:54:48.731Z,44.20
2017-09-08T13:57:15.107Z,44.10
2017-09-08T13:59:41.497Z,43.80
2017-09-08T14:02:07.838Z,43.30
2017-09-08T14:04:34.233Z,43.20
2017-09-08T14:07:00.587Z,42.60
2017-09-08T14:09:27.226Z,42.20
2017-09-08T14:11:53.570Z,42.00
2017-09-08T14:14:19.887Z,42.10
2017-09-08T14:16:46.282Z,42.50
2017-09-08T14:19:12.654Z,43.50
2017-09-08T14:21:39.035Z,43.20
2017-09-08T14:24:05.422Z,43.40
2017-09-08T14:26:32.163Z,44.00
2017-09-08T14:28:58.531Z,43.60
2017-09-08T14:31:24.930Z,43.20
2017-09-08T14:33:51.305Z,44.00
2017-09-08T14:36:17.638Z,43.70
2017-09-08T14:38:44.010Z,43.20
2017-09-08T14:41:11.117Z,44.40
2017-09-08T14:43:37.782Z,44.90
2017-09-08T14:46:04.132Z,44.70
2017-09-08T14:48:31.288Z,45.50
2017-09-08T14:50:58.426Z,45.40
2017-09-08T14:53:25.526Z,44.70
2017-09-08T14:55:51.908Z,44.70
2017-09-08T14:58:18.997Z,44.50
2017-09-08T15:00:45.402Z,44.40
2017-09-08T15:03:11.813Z,45.10
2017-09-08T15:05:38.475Z,45.40
2017-09-08T15:08:04.835Z,45.80
2017-09-08T15:10:31.215Z,45.80
2017-09-08T15:12:58.316Z,45.40
2017-09-08T15:15:24.707Z,45.30
2017-09-08T15:17:51.110Z,45.40
2017-09-08T15:20:17.472Z,44.70
2017-09-08T15:22:43.924Z,45.50
2017-09-08T15:25:10.291Z,44.50
2017-09-08T15:27:37.768Z,45.10
2017-09-08T15:30:04.136Z,45.10
2017-09-08T15:32:30.541Z,45.30
2017-09-08T15:34:56.945Z,45.20
2017-09-08T15:37:24.068Z,45.20
2017-09-08T15:39:50.470Z,45.10
2017-09-08T15:42:16.817Z,45.80
2017-09-08T15:44:43.204Z,46.20
2017-09-08T15:47:09.524Z,45.90
2017-09-08T15:49:36.945Z,46.60
2017-09-08T15:52:03.323Z,46.50
2017-09-08T15:54:29.684Z,47.00
2017-09-08T15:56:56.060Z,47.40
2017-09-08T15:59:22.412Z,47.90
2017-09-08T16:01:48.750Z,48.00
2017-09-08T16:04:15.095Z,47.50
2017-09-08T16:06:41.756Z,47.90
2017-09-08T16:09:08.131Z,47.30
2017-09-08T16:11:34.527Z,47.60
2017-09-08T16:14:00.889Z,48.20
2017-09-08T16:16:27.287Z,48.90
2017-09-08T16:18:53.670Z,50.20
2017-09-08T16:21:20.047Z,51.50
2017-09-08T16:23:46.409Z,52.70
2017-09-08T16:26:13.507Z,53.00
2017-09-08T16:28:39.949Z,53.00
2017-09-08T16:31:06.318Z,52.80
2017-09-08T16:33:33.438Z,53.40
2017-09-08T16:35:59.888Z,53.30
2017-09-08T16:38:26.261Z,54.10
2017-09-08T16:40:52.619Z,55.00
2017-09-08T16:43:18.991Z,55.90
2017-09-08T16:45:45.359Z,56.80
2017-09-08T16:48:11.851Z,57.70
2017-09-08T16:50:38.222Z,58.30
2017-09-08T16:53:04.574Z,58.90
2017-09-08T16:55:31.051Z,59.60
2017-09-08T16:57:57.410Z,60.40
2017-09-08T17:00:23.809Z,61.70
2017-09-08T17:02:50.173Z,62.90
2017-09-08T17:05:16.580Z,63.90
2017-09-08T17:07:42.965Z,64.70
2017-09-08T17:10:09.329Z,65.70
2017-09-08T17:12:35.676Z,66.60
2017-09-08T17:15:02.048Z,67.50
2017-09-08T17:17:28.420Z,68.40
2017-09-08T17:19:54.767Z,69.20
2017-09-08T17:22:21.154Z,70.30
2017-09-08T17:24:48.324Z,72.10
2017-09-08T17:27:14.745Z,72.10
2017-09-08T17:29:41.131Z,72.60
2017-09-08T17:32:07.478Z,72.60
2017-09-08T17:34:34.606Z,73.70
2017-09-08T17:37:00.961Z,73.70
2017-09-08T17:39:28.070Z,75.50
2017-09-08T17:41:54.401Z,75.50
2017-09-08T17:44:20.816Z,76.50
2017-09-08T17:46:47.169Z,76.90
2017-09-08T17:49:13.655Z,77.50
2017-09-08T17:51:40.044Z,78.40
2017-09-08T17:54:06.699Z,79.30
2017-09-08T17:56:33.798Z,81.00
2017-09-08T17:59:00.162Z,81.00
2017-09-08T18:01:26.533Z,81.60
2017-09-08T18:03:52.917Z,82.30
2017-09-08T18:06:19.302Z,82.80
2017-09-08T18:08:45.678Z,83.60
2017-09-08T18:11:12.069Z,84.90
2017-09-08T18:13:38.446Z,85.60
2017-09-08T18:16:05.911Z,87.50
2017-09-08T18:18:33.038Z,88.00
2017-09-08T18:20:59.498Z,87.10
2017-09-08T18:23:26.720Z,87.80
2017-09-08T18:25:53.142Z,87.80
2017-09-08T18:28:19.555Z,88.50
2017-09-08T18:30:45.947Z,88.90
2017-09-08T18:33:12.328Z,89.20
2017-09-08T18:35:38.794Z,89.30
2017-09-08T18:38:05.948Z,90.30
2017-09-08T18:40:33.161Z,90.10
2017-09-08T18:42:59.911Z,90.10
2017-09-08T18:45:26.335Z,90.40
2017-09-08T18:47:52.922Z,90.70
2017-09-08T18:50:19.445Z,91.00
2017-09-08T18:52:45.939Z,91.30
2017-09-08T18:55:12.378Z,91.60
2017-09-08T18:57:38.821Z,91.70
2017-09-08T19:00:05.996Z,92.10
2017-09-08T19:02:32.413Z,92.00
2017-09-08T19:04:58.862Z,92.00
2017-09-08T19:07:25.319Z,92.10
2017-09-08T19:09:52.149Z,92.30
2017-09-08T19:12:18.635Z,92.40
2017-09-08T19:14:45.842Z,92.60
2017-09-08T19:17:12.331Z,92.50
2017-09-08T19:19:38.812Z,92.60
2017-09-08T19:22:05.291Z,92.60
2017-09-08T19:24:31.694Z,92.70
2017-09-08T19:26:58.147Z,92.70
2017-09-08T19:29:24.585Z,93.00
2017-09-08T19:31:51.024Z,93.20
2017-09-08T19:34:17.499Z,93.30
2017-09-08T19:36:44.243Z,93.40
2017-09-08T19:39:10.713Z,93.60
2017-09-08T19:41:37.851Z,93.80
2017-09-08T19:44:04.319Z,93.80
2017-09-08T19:46:30.721Z,93.90
2017-09-08T19:48:57.291Z,94.00
2017-09-08T19:51:23.770Z,94.00
2017-09-08T19:53:50.262Z,94.10
2017-09-08T19:56:16.716Z,94.10
2017-09-08T19:58:43.515Z,94.20
2017-09-08T20:01:09.921Z,94.20
2017-09-08T20:03:36.415Z,94.30
2017-09-08T20:06:02.944Z,94.40
2017-09-08T20:08:29.396Z,94.40
2017-09-08T20:10:55.859Z,94.50
2017-09-08T20:13:22.292Z,94.50
2017-09-08T20:15:49.480Z,94.60
2017-09-08T20:18:15.989Z,94.60
2017-09-08T20:20:42.479Z,94.60
2017-09-08T20:23:08.937Z,94.70
2017-09-08T20:25:35.661Z,94.70
2017-09-08T20:28:02.055Z,94.60
2017-09-08T20:30:28.586Z,94.70
2017-09-08T20:32:55.039Z,94.60
2017-09-08T20:35:21.496Z,94.60
2017-09-08T20:37:48.672Z,94.70
2017-09-08T20:40:15.115Z,94.70
2017-09-08T20:42:41.603Z,94.80
2017-09-08T20:45:08.749Z,94.90
2017-09-08T20:50:36.491Z,94.90
2017-09-08T20:53:03.178Z,94.90
2017-09-08T20:55:30.336Z,95.00
2017-09-08T20:58:11.014Z,95.00
2017-09-08T21:00:37.389Z,95.00
2017-09-08T21:03:03.773Z,95.10
2017-09-08T21:05:30.236Z,95.30
2017-09-08T21:07:56.634Z,95.30
2017-09-08T21:10:23.052Z,95.30
2017-09-08T21:12:49.452Z,95.40
2017-09-08T21:15:15.774Z,95.30
2017-09-08T21:17:42.099Z,95.30
2017-09-08T21:20:08.519Z,95.30
2017-09-08T21:22:34.933Z,95.50
2017-09-08T21:25:01.716Z,95.70
2017-09-08T21:27:28.071Z,95.80
2017-09-08T21:29:54.443Z,95.80
2017-09-08T21:32:20.832Z,95.60
2017-09-08T21:34:47.218Z,95.50
2017-09-08T21:37:13.684Z,95.50
2017-09-08T21:39:40.097Z,95.40
2017-09-08T21:42:07.223Z,95.40
2017-09-08T21:44:33.564Z,95.40
2017-09-08T21:47:00.329Z,95.50
2017-09-08T21:49:27.518Z,95.60
2017-09-08T21:51:53.924Z,95.60
2017-09-08T21:54:20.304Z,95.70
2017-09-08T21:56:46.659Z,95.80
2017-09-08T21:59:13.790Z,95.90
2017-09-08T22:01:40.196Z,95.90
2017-09-08T22:04:06.568Z,95.90
2017-09-08T22:06:32.973Z,96.00
2017-09-08T22:08:59.325Z,96.10
2017-09-08T22:11:25.712Z,96.10
2017-09-08T22:13:52.106Z,96.10
2017-09-08T22:16:25.435Z,96.00
2017-09-08T22:18:52.114Z,96.10
2017-09-08T22:21:19.228Z,96.40
2017-09-08T22:23:45.589Z,96.10
2017-09-08T22:26:11.995Z,96.00
2017-09-08T22:28:38.367Z,96.00
2017-09-08T22:31:04.804Z,96.00
2017-09-08T22:33:31.948Z,95.90
2017-09-08T22:35:59.071Z,96.00
2017-09-08T22:38:26.222Z,96.30
2017-09-08T22:40:53.334Z,96.10
2017-09-08T22:43:19.716Z,96.40
2017-09-08T22:45:46.089Z,96.10
2017-09-08T22:48:12.474Z,96.00
2017-09-08T22:50:39.873Z,96.00
2017-09-08T22:53:06.250Z,96.30
2017-09-08T22:55:33.365Z,96.20
2017-09-08T22:57:59.733Z,96.20
2017-09-08T23:00:26.851Z,96.40
2017-09-08T23:02:53.227Z,96.30
2017-09-08T23:05:19.607Z,96.30
2017-09-08T23:07:46.025Z,96.30
2017-09-08T23:10:12.418Z,96.30
2017-09-08T23:12:38.869Z,96.30
2017-09-08T23:15:05.241Z,96.50
2017-09-08T23:17:31.888Z,96.30
2017-09-08T23:19:58.966Z,96.30
2017-09-08T23:22:25.334Z,96.30
2017-09-08T23:24:51.679Z,96.50
2017-09-08T23:27:18.087Z,96.60
2017-09-08T23:29:44.462Z,96.60
2017-09-08T23:32:10.847Z,96.50
2017-09-08T23:34:37.232Z,96.50
2017-09-08T23:37:04.373Z,96.50
2017-09-08T23:39:30.816Z,96.50
2017-09-08T23:41:57.167Z,96.60
2017-09-08T23:44:23.550Z,96.70
2017-09-08T23:46:50.631Z,96.80
2017-09-08T23:49:17.089Z,96.70
2017-09-08T23:51:43.468Z,96.80
2017-09-08T23:54:10.545Z,96.70
2017-09-08T23:56:36.931Z,96.70
2017-09-08T23:59:03.289Z,96.70
